sensor_id;sensor_type;location;lat;lon;timestamp;temperature;humidity
1277;DHT22;631;51.024;13.826;2023-06-04T00:01:52;9.70;97.30
1277;DHT22;631;51.024;13.826;2023-06-04T00:04:18;9.60;97.30
1277;DHT22;631;51.024;13.826;2023-06-04T00:06:44;9.50;97.50
1277;DHT22;631;51.024;13.826;2023-06-04T00:09:09;9.50;97.90
1277;DHT22;631;51.024;13.826;2023-06-04T00:11:35;9.40;98.20
1277;DHT22;631;51.024;13.826;2023-06-04T00:14:02;9.40;98.50
1277;DHT22;631;51.024;13.826;2023-06-04T00:16:27;9.30;99.30
1277;DHT22;631;51.024;13.826;2023-06-04T00:18:53;9.20;99.20
1277;DHT22;631;51.024;13.826;2023-06-04T00:21:19;9.20;99.10
1277;DHT22;631;51.024;13.826;2023-06-04T00:23:44;9.20;99.50
1277;DHT22;631;51.024;13.826;2023-06-04T00:26:10;9.10;99.90
1277;DHT22;631;51.024;13.826;2023-06-04T00:28:35;9.10;99.90
1277;DHT22;631;51.024;13.826;2023-06-04T00:31:04;9.00;99.90
1277;DHT22;631;51.024;13.826;2023-06-04T00:33:30;9.00;99.90
1277;DHT22;631;51.024;13.826;2023-06-04T00:35:56;9.00;99.90
1277;DHT22;631;51.024;13.826;2023-06-04T00:38:22;8.90;99.90
1277;DHT22;631;51.024;13.826;2023-06-04T00:40:47;8.90;99.90
1277;DHT22;631;51.024;13.826;2023-06-04T00:43:13;8.80;99.90
1277;DHT22;631;51.024;13.826;2023-06-04T00:45:39;8.80;99.90
1277;DHT22;631;51.024;13.826;2023-06-04T00:48:05;8.80;99.90
1277;DHT22;631;51.024;13.826;2023-06-04T00:50:32;8.70;99.90
1277;DHT22;631;51.024;13.826;2023-06-04T00:52:58;8.70;99.90
1277;DHT22;631;51.024;13.826;2023-06-04T00:55:24;8.70;99.90
1277;DHT22;631;51.024;13.826;2023-06-04T00:57:50;8.60;99.90
1277;DHT22;631;51.024;13.826;2023-06-04T01:00:16;8.60;99.90
1277;DHT22;631;51.024;13.826;2023-06-04T01:02:43;8.50;99.90
1277;DHT22;631;51.024;13.826;2023-06-04T01:05:16;8.50;99.90
1277;DHT22;631;51.024;13.826;2023-06-04T01:07:45;8.40;99.90
1277;DHT22;631;51.024;13.826;2023-06-04T01:10:13;8.40;99.90
1277;DHT22;631;51.024;13.826;2023-06-04T01:12:44;8.30;99.90
1277;DHT22;631;51.024;13.826;2023-06-04T01:15:11;8.40;99.90
1277;DHT22;631;51.024;13.826;2023-06-04T01:17:45;8.40;99.90
1277;DHT22;631;51.024;13.826;2023-06-04T01:20:19;8.30;99.90
1277;DHT22;631;51.024;13.826;2023-06-04T01:25:37;8.20;99.90
1277;DHT22;631;51.024;13.826;2023-06-04T01:28:08;8.20;99.90
1277;DHT22;631;51.024;13.826;2023-06-04T01:30:38;8.20;99.90
1277;DHT22;631;51.024;13.826;2023-06-04T01:33:16;8.10;99.90
1277;DHT22;631;51.024;13.826;2023-06-04T01:35:43;8.10;99.90
1277;DHT22;631;51.024;13.826;2023-06-04T01:38:09;8.00;99.90
1277;DHT22;631;51.024;13.826;2023-06-04T01:40:34;8.00;99.90
1277;DHT22;631;51.024;13.826;2023-06-04T01:43:00;8.00;99.90
1277;DHT22;631;51.024;13.826;2023-06-04T01:45:27;8.00;99.90
1277;DHT22;631;51.024;13.826;2023-06-04T01:47:53;7.90;99.90
1277;DHT22;631;51.024;13.826;2023-06-04T01:50:18;7.80;99.90
1277;DHT22;631;51.024;13.826;2023-06-04T01:52:44;7.80;99.90
1277;DHT22;631;51.024;13.826;2023-06-04T01:55:13;7.80;99.90
1277;DHT22;631;51.024;13.826;2023-06-04T01:57:40;7.80;99.90
1277;DHT22;631;51.024;13.826;2023-06-04T02:00:07;7.70;99.90
1277;DHT22;631;51.024;13.826;2023-06-04T02:09:28;7.60;99.90
1277;DHT22;631;51.024;13.826;2023-06-04T02:11:54;7.60;99.90
1277;DHT22;631;51.024;13.826;2023-06-04T02:14:19;7.60;99.90
1277;DHT22;631;51.024;13.826;2023-06-04T02:16:45;7.50;99.90
1277;DHT22;631;51.024;13.826;2023-06-04T02:19:15;7.50;99.90
1277;DHT22;631;51.024;13.826;2023-06-04T02:21:44;7.50;99.90
1277;DHT22;631;51.024;13.826;2023-06-04T02:24:09;7.40;99.90
1277;DHT22;631;51.024;13.826;2023-06-04T02:26:35;7.40;99.90
1277;DHT22;631;51.024;13.826;2023-06-04T02:29:01;7.40;99.90
1277;DHT22;631;51.024;13.826;2023-06-04T02:31:27;7.30;99.90
1277;DHT22;631;51.024;13.826;2023-06-04T02:33:53;7.30;99.90
1277;DHT22;631;51.024;13.826;2023-06-04T02:36:18;7.30;99.90
1277;DHT22;631;51.024;13.826;2023-06-04T02:38:44;7.20;99.90
1277;DHT22;631;51.024;13.826;2023-06-04T02:41:09;7.20;99.90
1277;DHT22;631;51.024;13.826;2023-06-04T02:43:36;7.20;99.90
1277;DHT22;631;51.024;13.826;2023-06-04T02:46:02;7.20;99.90
1277;DHT22;631;51.024;13.826;2023-06-04T02:48:27;7.20;99.90
1277;DHT22;631;51.024;13.826;2023-06-04T02:50:53;7.20;99.90
1277;DHT22;631;51.024;13.826;2023-06-04T02:53:19;7.10;99.90
1277;DHT22;631;51.024;13.826;2023-06-04T02:55:46;7.10;99.90
1277;DHT22;631;51.024;13.826;2023-06-04T02:58:11;7.10;99.90
1277;DHT22;631;51.024;13.826;2023-06-04T03:00:39;7.10;99.90
1277;DHT22;631;51.024;13.826;2023-06-04T03:03:05;7.00;99.90
1277;DHT22;631;51.024;13.826;2023-06-04T03:05:31;7.00;99.90
1277;DHT22;631;51.024;13.826;2023-06-04T03:07:58;6.90;99.90
1277;DHT22;631;51.024;13.826;2023-06-04T03:10:24;6.90;99.90
1277;DHT22;631;51.024;13.826;2023-06-04T03:12:50;6.90;99.90
1277;DHT22;631;51.024;13.826;2023-06-04T03:15:16;6.80;99.90
1277;DHT22;631;51.024;13.826;2023-06-04T03:17:42;6.80;99.90
1277;DHT22;631;51.024;13.826;2023-06-04T03:20:08;6.80;99.90
1277;DHT22;631;51.024;13.826;2023-06-04T03:22:34;6.80;99.90
1277;DHT22;631;51.024;13.826;2023-06-04T03:25:01;6.80;99.90
1277;DHT22;631;51.024;13.826;2023-06-04T03:27:27;6.70;99.90
1277;DHT22;631;51.024;13.826;2023-06-04T03:29:53;6.70;99.90
1277;DHT22;631;51.024;13.826;2023-06-04T03:32:18;6.80;99.90
1277;DHT22;631;51.024;13.826;2023-06-04T03:34:44;6.80;99.90
1277;DHT22;631;51.024;13.826;2023-06-04T03:37:09;6.80;99.90
1277;DHT22;631;51.024;13.826;2023-06-04T03:39:35;6.70;99.90
1277;DHT22;631;51.024;13.826;2023-06-04T03:42:01;6.70;99.90
1277;DHT22;631;51.024;13.826;2023-06-04T03:44:26;6.70;99.90
1277;DHT22;631;51.024;13.826;2023-06-04T03:46:52;6.80;99.90
1277;DHT22;631;51.024;13.826;2023-06-04T03:49:18;6.70;99.90
1277;DHT22;631;51.024;13.826;2023-06-04T03:51:44;6.70;99.90
1277;DHT22;631;51.024;13.826;2023-06-04T03:54:10;6.70;99.90
1277;DHT22;631;51.024;13.826;2023-06-04T03:56:37;6.70;99.90
1277;DHT22;631;51.024;13.826;2023-06-04T03:59:02;6.70;99.90
1277;DHT22;631;51.024;13.826;2023-06-04T04:01:28;6.80;99.90
1277;DHT22;631;51.024;13.826;2023-06-04T04:03:54;6.80;99.90
1277;DHT22;631;51.024;13.826;2023-06-04T04:06:20;6.80;99.90
1277;DHT22;631;51.024;13.826;2023-06-04T04:08:46;6.80;99.90
1277;DHT22;631;51.024;13.826;2023-06-04T04:11:15;6.80;99.90
1277;DHT22;631;51.024;13.826;2023-06-04T04:13:41;6.80;99.90
1277;DHT22;631;51.024;13.826;2023-06-04T04:16:07;6.80;99.90
1277;DHT22;631;51.024;13.826;2023-06-04T04:18:34;6.80;99.90
1277;DHT22;631;51.024;13.826;2023-06-04T04:21:00;6.80;99.90
1277;DHT22;631;51.024;13.826;2023-06-04T04:23:28;6.80;99.90
1277;DHT22;631;51.024;13.826;2023-06-04T04:25:53;6.80;99.90
1277;DHT22;631;51.024;13.826;2023-06-04T04:28:22;6.90;99.90
1277;DHT22;631;51.024;13.826;2023-06-04T04:30:47;6.90;99.90
1277;DHT22;631;51.024;13.826;2023-06-04T04:33:14;6.90;99.90
1277;DHT22;631;51.024;13.826;2023-06-04T04:35:42;6.90;99.90
1277;DHT22;631;51.024;13.826;2023-06-04T04:38:09;7.00;99.90
1277;DHT22;631;51.024;13.826;2023-06-04T04:40:36;7.10;99.90
1277;DHT22;631;51.024;13.826;2023-06-04T04:43:02;7.10;99.90
1277;DHT22;631;51.024;13.826;2023-06-04T04:45:28;7.20;99.90
1277;DHT22;631;51.024;13.826;2023-06-04T04:47:53;7.30;99.90
1277;DHT22;631;51.024;13.826;2023-06-04T04:50:19;7.40;99.90
1277;DHT22;631;51.024;13.826;2023-06-04T04:52:44;7.40;99.90
1277;DHT22;631;51.024;13.826;2023-06-04T04:55:10;7.50;99.90
1277;DHT22;631;51.024;13.826;2023-06-04T04:57:37;7.60;99.90
1277;DHT22;631;51.024;13.826;2023-06-04T05:00:04;7.70;99.90
1277;DHT22;631;51.024;13.826;2023-06-04T05:02:37;7.70;99.90
1277;DHT22;631;51.024;13.826;2023-06-04T05:05:03;7.80;99.90
1277;DHT22;631;51.024;13.826;2023-06-04T05:07:29;7.80;99.90
1277;DHT22;631;51.024;13.826;2023-06-04T05:09:55;7.90;99.90
1277;DHT22;631;51.024;13.826;2023-06-04T05:12:21;8.00;99.90
1277;DHT22;631;51.024;13.826;2023-06-04T05:14:46;8.10;99.90
1277;DHT22;631;51.024;13.826;2023-06-04T05:17:12;8.20;99.90
1277;DHT22;631;51.024;13.826;2023-06-04T05:19:38;8.20;99.90
1277;DHT22;631;51.024;13.826;2023-06-04T05:22:04;8.30;99.90
1277;DHT22;631;51.024;13.826;2023-06-04T05:24:30;8.40;99.90
1277;DHT22;631;51.024;13.826;2023-06-04T05:26:57;8.50;99.90
1277;DHT22;631;51.024;13.826;2023-06-04T05:29:23;8.60;99.90
1277;DHT22;631;51.024;13.826;2023-06-04T05:31:49;8.70;99.90
1277;DHT22;631;51.024;13.826;2023-06-04T05:34:15;8.80;99.90
1277;DHT22;631;51.024;13.826;2023-06-04T05:36:42;8.80;99.90
1277;DHT22;631;51.024;13.826;2023-06-04T05:39:09;8.90;99.90
1277;DHT22;631;51.024;13.826;2023-06-04T05:41:35;9.00;99.90
1277;DHT22;631;51.024;13.826;2023-06-04T05:44:01;9.10;99.90
1277;DHT22;631;51.024;13.826;2023-06-04T05:46:27;9.20;99.90
1277;DHT22;631;51.024;13.826;2023-06-04T05:48:53;9.30;99.90
1277;DHT22;631;51.024;13.826;2023-06-04T05:51:19;9.40;99.90
1277;DHT22;631;51.024;13.826;2023-06-04T05:53:45;9.60;99.90
1277;DHT22;631;51.024;13.826;2023-06-04T05:56:11;9.70;99.90
1277;DHT22;631;51.024;13.826;2023-06-04T05:58:37;9.80;99.90
1277;DHT22;631;51.024;13.826;2023-06-04T06:01:03;9.90;99.90
1277;DHT22;631;51.024;13.826;2023-06-04T06:03:28;10.00;99.90
1277;DHT22;631;51.024;13.826;2023-06-04T06:05:54;10.10;99.90
1277;DHT22;631;51.024;13.826;2023-06-04T06:08:21;10.30;99.60
1277;DHT22;631;51.024;13.826;2023-06-04T06:10:46;10.40;99.00
1277;DHT22;631;51.024;13.826;2023-06-04T06:13:12;10.50;98.60
1277;DHT22;631;51.024;13.826;2023-06-04T06:15:38;10.60;98.40
1277;DHT22;631;51.024;13.826;2023-06-04T06:18:04;10.70;98.30
1277;DHT22;631;51.024;13.826;2023-06-04T06:20:30;10.90;98.30
1277;DHT22;631;51.024;13.826;2023-06-04T06:22:55;11.00;98.20
1277;DHT22;631;51.024;13.826;2023-06-04T06:25:21;11.20;98.20
1277;DHT22;631;51.024;13.826;2023-06-04T06:27:47;11.30;98.20
1277;DHT22;631;51.024;13.826;2023-06-04T06:30:14;11.40;97.80
1277;DHT22;631;51.024;13.826;2023-06-04T06:32:40;11.50;97.40
1277;DHT22;631;51.024;13.826;2023-06-04T06:35:05;11.60;97.20
1277;DHT22;631;51.024;13.826;2023-06-04T06:37:33;11.70;96.60
1277;DHT22;631;51.024;13.826;2023-06-04T06:39:58;11.80;95.70
1277;DHT22;631;51.024;13.826;2023-06-04T06:42:24;11.90;95.30
1277;DHT22;631;51.024;13.826;2023-06-04T06:44:50;12.00;94.00
1277;DHT22;631;51.024;13.826;2023-06-04T06:47:16;12.20;93.10
1277;DHT22;631;51.024;13.826;2023-06-04T06:49:42;12.30;92.30
1277;DHT22;631;51.024;13.826;2023-06-04T06:52:09;12.40;92.20
1277;DHT22;631;51.024;13.826;2023-06-04T06:54:34;12.50;91.40
1277;DHT22;631;51.024;13.826;2023-06-04T06:57:00;12.60;91.40
1277;DHT22;631;51.024;13.826;2023-06-04T06:59:26;12.70;90.50
1277;DHT22;631;51.024;13.826;2023-06-04T07:01:52;12.80;90.50
1277;DHT22;631;51.024;13.826;2023-06-04T07:04:18;12.90;90.30
1277;DHT22;631;51.024;13.826;2023-06-04T07:06:43;13.10;88.60
1277;DHT22;631;51.024;13.826;2023-06-04T07:09:09;13.30;87.50
1277;DHT22;631;51.024;13.826;2023-06-04T07:11:35;13.40;86.80
1277;DHT22;631;51.024;13.826;2023-06-04T07:14:01;13.60;82.20
1277;DHT22;631;51.024;13.826;2023-06-04T07:16:29;13.70;80.60
1277;DHT22;631;51.024;13.826;2023-06-04T07:18:55;13.80;80.70
1277;DHT22;631;51.024;13.826;2023-06-04T07:21:20;14.00;81.50
1277;DHT22;631;51.024;13.826;2023-06-04T07:23:49;14.20;81.30
1277;DHT22;631;51.024;13.826;2023-06-04T07:26:16;14.20;79.20
1277;DHT22;631;51.024;13.826;2023-06-04T07:28:42;14.30;78.40
1277;DHT22;631;51.024;13.826;2023-06-04T07:31:07;14.50;78.50
1277;DHT22;631;51.024;13.826;2023-06-04T07:33:33;14.70;76.10
1277;DHT22;631;51.024;13.826;2023-06-04T07:35:59;14.80;75.90
1277;DHT22;631;51.024;13.826;2023-06-04T07:38:25;15.00;76.40
1277;DHT22;631;51.024;13.826;2023-06-04T07:40:51;15.20;76.00
1277;DHT22;631;51.024;13.826;2023-06-04T07:43:17;15.30;75.30
1277;DHT22;631;51.024;13.826;2023-06-04T07:45:42;15.60;74.90
1277;DHT22;631;51.024;13.826;2023-06-04T07:48:11;15.70;72.30
1277;DHT22;631;51.024;13.826;2023-06-04T07:50:37;15.90;71.90
1277;DHT22;631;51.024;13.826;2023-06-04T07:53:02;16.10;71.20
1277;DHT22;631;51.024;13.826;2023-06-04T07:55:28;16.30;70.70
1277;DHT22;631;51.024;13.826;2023-06-04T07:57:54;16.50;68.40
1277;DHT22;631;51.024;13.826;2023-06-04T08:00:20;16.60;65.90
1277;DHT22;631;51.024;13.826;2023-06-04T08:02:45;16.80;66.40
1277;DHT22;631;51.024;13.826;2023-06-04T08:05:11;17.00;64.70
1277;DHT22;631;51.024;13.826;2023-06-04T08:07:39;17.10;63.80
1277;DHT22;631;51.024;13.826;2023-06-04T08:10:06;17.20;61.00
1277;DHT22;631;51.024;13.826;2023-06-04T08:12:31;17.40;61.50
1277;DHT22;631;51.024;13.826;2023-06-04T08:14:57;17.50;58.80
1277;DHT22;631;51.024;13.826;2023-06-04T08:17:23;17.70;58.60
1277;DHT22;631;51.024;13.826;2023-06-04T08:19:49;17.90;56.60
1277;DHT22;631;51.024;13.826;2023-06-04T08:22:14;18.00;55.60
1277;DHT22;631;51.024;13.826;2023-06-04T08:24:40;18.10;54.70
1277;DHT22;631;51.024;13.826;2023-06-04T08:27:06;18.20;53.50
1277;DHT22;631;51.024;13.826;2023-06-04T08:29:34;18.50;52.90
1277;DHT22;631;51.024;13.826;2023-06-04T08:32:01;18.70;52.00
1277;DHT22;631;51.024;13.826;2023-06-04T08:34:27;18.90;51.90
1277;DHT22;631;51.024;13.826;2023-06-04T08:36:53;19.10;49.20
1277;DHT22;631;51.024;13.826;2023-06-04T08:39:19;19.30;48.40
1277;DHT22;631;51.024;13.826;2023-06-04T08:41:49;19.40;47.30
1277;DHT22;631;51.024;13.826;2023-06-04T08:44:17;19.60;45.00
1277;DHT22;631;51.024;13.826;2023-06-04T08:46:44;19.70;44.40
1277;DHT22;631;51.024;13.826;2023-06-04T08:49:12;19.90;42.80
1277;DHT22;631;51.024;13.826;2023-06-04T08:51:38;20.10;43.20
1277;DHT22;631;51.024;13.826;2023-06-04T08:54:07;20.40;39.40
1277;DHT22;631;51.024;13.826;2023-06-04T08:56:34;20.60;37.10
1277;DHT22;631;51.024;13.826;2023-06-04T08:59:04;20.90;35.20
1277;DHT22;631;51.024;13.826;2023-06-04T09:01:32;21.20;34.60
1277;DHT22;631;51.024;13.826;2023-06-04T09:04:01;21.50;35.00
1277;DHT22;631;51.024;13.826;2023-06-04T09:06:27;21.80;33.10
1277;DHT22;631;51.024;13.826;2023-06-04T09:08:56;22.00;32.10
1277;DHT22;631;51.024;13.826;2023-06-04T09:11:30;22.20;31.40
1277;DHT22;631;51.024;13.826;2023-06-04T09:13:59;22.60;30.60
1277;DHT22;631;51.024;13.826;2023-06-04T09:16:26;22.80;29.90
1277;DHT22;631;51.024;13.826;2023-06-04T09:18:53;23.10;28.60
1277;DHT22;631;51.024;13.826;2023-06-04T09:21:18;23.60;28.70
1277;DHT22;631;51.024;13.826;2023-06-04T09:23:48;23.80;28.00
1277;DHT22;631;51.024;13.826;2023-06-04T09:26:13;24.30;26.80
1277;DHT22;631;51.024;13.826;2023-06-04T09:28:44;24.80;26.10
1277;DHT22;631;51.024;13.826;2023-06-04T09:31:19;25.40;26.30
1277;DHT22;631;51.024;13.826;2023-06-04T09:33:50;25.90;25.00
1277;DHT22;631;51.024;13.826;2023-06-04T09:36:16;26.30;25.00
1277;DHT22;631;51.024;13.826;2023-06-04T09:38:42;26.70;23.50
1277;DHT22;631;51.024;13.826;2023-06-04T09:41:17;27.20;23.60
1277;DHT22;631;51.024;13.826;2023-06-04T09:43:45;27.70;22.80
1277;DHT22;631;51.024;13.826;2023-06-04T09:46:14;28.10;20.30
1277;DHT22;631;51.024;13.826;2023-06-04T09:48:41;28.40;19.60
1277;DHT22;631;51.024;13.826;2023-06-04T09:51:11;28.60;18.80
1277;DHT22;631;51.024;13.826;2023-06-04T09:53:37;29.10;18.90
1277;DHT22;631;51.024;13.826;2023-06-04T09:56:04;29.00;17.50
1277;DHT22;631;51.024;13.826;2023-06-04T09:58:33;29.20;17.90
1277;DHT22;631;51.024;13.826;2023-06-04T10:01:02;29.40;17.50
1277;DHT22;631;51.024;13.826;2023-06-04T10:03:31;29.80;17.30
1277;DHT22;631;51.024;13.826;2023-06-04T10:05:59;29.90;15.70
1277;DHT22;631;51.024;13.826;2023-06-04T10:08:27;29.70;15.70
1277;DHT22;631;51.024;13.826;2023-06-04T10:11:00;30.30;16.60
1277;DHT22;631;51.024;13.826;2023-06-04T10:13:31;30.70;17.20
1277;DHT22;631;51.024;13.826;2023-06-04T10:16:00;30.80;16.30
1277;DHT22;631;51.024;13.826;2023-06-04T10:18:30;31.40;16.00
1277;DHT22;631;51.024;13.826;2023-06-04T10:20:56;31.80;15.20
1277;DHT22;631;51.024;13.826;2023-06-04T10:23:23;32.40;15.20
1277;DHT22;631;51.024;13.826;2023-06-04T10:25:50;31.90;13.90
1277;DHT22;631;51.024;13.826;2023-06-04T10:28:19;32.30;14.00
1277;DHT22;631;51.024;13.826;2023-06-04T10:30:48;32.40;13.20
1277;DHT22;631;51.024;13.826;2023-06-04T10:33:21;32.20;12.10
1277;DHT22;631;51.024;13.826;2023-06-04T10:35:50;32.40;11.80
1277;DHT22;631;51.024;13.826;2023-06-04T10:38:16;31.40;11.80
1277;DHT22;631;51.024;13.826;2023-06-04T10:40:44;30.80;12.80
1277;DHT22;631;51.024;13.826;2023-06-04T10:43:12;31.00;13.90
1277;DHT22;631;51.024;13.826;2023-06-04T10:45:38;31.50;14.50
1277;DHT22;631;51.024;13.826;2023-06-04T10:48:08;31.90;13.60
1277;DHT22;631;51.024;13.826;2023-06-04T10:50:35;32.30;13.40
1277;DHT22;631;51.024;13.826;2023-06-04T10:53:12;32.90;13.80
1277;DHT22;631;51.024;13.826;2023-06-04T10:55:44;33.20;12.70
1277;DHT22;631;51.024;13.826;2023-06-04T10:58:10;33.50;13.00
1277;DHT22;631;51.024;13.826;2023-06-04T11:00:36;34.10;12.40
1277;DHT22;631;51.024;13.826;2023-06-04T11:03:02;34.40;11.70
1277;DHT22;631;51.024;13.826;2023-06-04T11:05:43;34.60;11.80
1277;DHT22;631;51.024;13.826;2023-06-04T11:08:10;34.60;11.20
1277;DHT22;631;51.024;13.826;2023-06-04T11:10:40;34.80;11.60
1277;DHT22;631;51.024;13.826;2023-06-04T11:13:05;34.80;9.60
1277;DHT22;631;51.024;13.826;2023-06-04T11:15:45;34.30;9.20
1277;DHT22;631;51.024;13.826;2023-06-04T11:18:15;34.30;10.30
1277;DHT22;631;51.024;13.826;2023-06-04T11:20:41;34.70;10.60
1277;DHT22;631;51.024;13.826;2023-06-04T11:23:12;34.60;9.80
1277;DHT22;631;51.024;13.826;2023-06-04T11:25:38;34.80;11.10
1277;DHT22;631;51.024;13.826;2023-06-04T11:28:04;35.10;10.60
1277;DHT22;631;51.024;13.826;2023-06-04T11:30:30;35.40;10.10
1277;DHT22;631;51.024;13.826;2023-06-04T11:33:02;35.30;10.10
1277;DHT22;631;51.024;13.826;2023-06-04T11:35:28;35.50;10.10
1277;DHT22;631;51.024;13.826;2023-06-04T11:37:55;35.30;9.20
1277;DHT22;631;51.024;13.826;2023-06-04T11:40:21;35.30;8.80
1277;DHT22;631;51.024;13.826;2023-06-04T11:42:47;35.00;7.90
1277;DHT22;631;51.024;13.826;2023-06-04T11:45:14;34.30;8.40
1277;DHT22;631;51.024;13.826;2023-06-04T11:47:48;33.90;8.80
1277;DHT22;631;51.024;13.826;2023-06-04T11:50:14;34.00;9.40
1277;DHT22;631;51.024;13.826;2023-06-04T11:52:40;34.30;10.50
1277;DHT22;631;51.024;13.826;2023-06-04T11:55:10;34.60;10.00
1277;DHT22;631;51.024;13.826;2023-06-04T11:57:37;34.80;10.20
1277;DHT22;631;51.024;13.826;2023-06-04T12:00:04;35.00;9.80
1277;DHT22;631;51.024;13.826;2023-06-04T12:02:37;35.00;9.70
1277;DHT22;631;51.024;13.826;2023-06-04T12:05:16;35.20;10.30
1277;DHT22;631;51.024;13.826;2023-06-04T12:07:46;35.20;9.20
1277;DHT22;631;51.024;13.826;2023-06-04T12:10:13;35.00;8.80
1277;DHT22;631;51.024;13.826;2023-06-04T12:12:38;34.80;9.30
1277;DHT22;631;51.024;13.826;2023-06-04T12:15:06;35.10;9.90
1277;DHT22;631;51.024;13.826;2023-06-04T12:17:32;35.50;9.70
1277;DHT22;631;51.024;13.826;2023-06-04T12:19:58;35.60;9.60
1277;DHT22;631;51.024;13.826;2023-06-04T12:22:24;35.40;9.10
1277;DHT22;631;51.024;13.826;2023-06-04T12:24:55;35.70;9.60
1277;DHT22;631;51.024;13.826;2023-06-04T12:27:23;36.00;9.50
1277;DHT22;631;51.024;13.826;2023-06-04T12:29:58;35.70;8.90
1277;DHT22;631;51.024;13.826;2023-06-04T12:32:23;35.70;9.40
1277;DHT22;631;51.024;13.826;2023-06-04T12:34:49;35.80;9.30
1277;DHT22;631;51.024;13.826;2023-06-04T12:37:15;35.80;8.50
1277;DHT22;631;51.024;13.826;2023-06-04T12:39:40;35.60;8.90
1277;DHT22;631;51.024;13.826;2023-06-04T12:42:07;36.00;8.60
1277;DHT22;631;51.024;13.826;2023-06-04T12:44:35;35.90;8.70
1277;DHT22;631;51.024;13.826;2023-06-04T12:47:01;35.10;7.60
1277;DHT22;631;51.024;13.826;2023-06-04T12:49:26;35.00;8.80
1277;DHT22;631;51.024;13.826;2023-06-04T12:51:52;35.20;9.00
1277;DHT22;631;51.024;13.826;2023-06-04T12:54:18;35.30;8.60
1277;DHT22;631;51.024;13.826;2023-06-04T12:56:43;35.40;8.60
1277;DHT22;631;51.024;13.826;2023-06-04T12:59:09;35.70;8.00
1277;DHT22;631;51.024;13.826;2023-06-04T13:01:35;35.90;7.90
1277;DHT22;631;51.024;13.826;2023-06-04T13:04:03;35.70;7.60
1277;DHT22;631;51.024;13.826;2023-06-04T13:06:28;35.90;7.80
1277;DHT22;631;51.024;13.826;2023-06-04T13:08:54;36.20;8.30
1277;DHT22;631;51.024;13.826;2023-06-04T13:11:20;36.30;8.40
1277;DHT22;631;51.024;13.826;2023-06-04T13:13:47;36.20;8.20
1277;DHT22;631;51.024;13.826;2023-06-04T13:16:13;36.10;7.50
1277;DHT22;631;51.024;13.826;2023-06-04T13:18:38;35.20;7.00
1277;DHT22;631;51.024;13.826;2023-06-04T13:21:04;34.60;8.10
1277;DHT22;631;51.024;13.826;2023-06-04T13:23:30;35.10;9.10
1277;DHT22;631;51.024;13.826;2023-06-04T13:25:55;35.60;8.40
1277;DHT22;631;51.024;13.826;2023-06-04T13:28:21;35.90;7.60
1277;DHT22;631;51.024;13.826;2023-06-04T13:30:47;36.00;7.70
1277;DHT22;631;51.024;13.826;2023-06-04T13:33:13;36.30;7.70
1277;DHT22;631;51.024;13.826;2023-06-04T13:35:39;36.40;7.60
1277;DHT22;631;51.024;13.826;2023-06-04T13:38:05;36.30;6.40
1277;DHT22;631;51.024;13.826;2023-06-04T13:40:34;36.20;7.30
1277;DHT22;631;51.024;13.826;2023-06-04T13:43:00;36.40;7.80
1277;DHT22;631;51.024;13.826;2023-06-04T13:45:26;36.50;8.00
1277;DHT22;631;51.024;13.826;2023-06-04T13:47:52;36.80;8.20
1277;DHT22;631;51.024;13.826;2023-06-04T13:50:17;37.00;7.80
1277;DHT22;631;51.024;13.826;2023-06-04T13:52:43;37.00;7.40
1277;DHT22;631;51.024;13.826;2023-06-04T13:55:09;36.90;7.00
1277;DHT22;631;51.024;13.826;2023-06-04T13:57:35;36.70;7.30
1277;DHT22;631;51.024;13.826;2023-06-04T14:00:00;36.50;7.30
1277;DHT22;631;51.024;13.826;2023-06-04T14:02:26;36.40;6.70
1277;DHT22;631;51.024;13.826;2023-06-04T14:04:53;36.30;7.10
1277;DHT22;631;51.024;13.826;2023-06-04T14:07:19;36.50;7.00
1277;DHT22;631;51.024;13.826;2023-06-04T14:09:45;36.60;7.30
1277;DHT22;631;51.024;13.826;2023-06-04T14:12:10;36.70;7.80
1277;DHT22;631;51.024;13.826;2023-06-04T14:14:36;36.80;7.00
1277;DHT22;631;51.024;13.826;2023-06-04T14:17:02;36.40;7.00
1277;DHT22;631;51.024;13.826;2023-06-04T14:19:28;36.40;7.60
1277;DHT22;631;51.024;13.826;2023-06-04T14:21:54;36.40;7.00
1277;DHT22;631;51.024;13.826;2023-06-04T14:24:19;36.30;7.00
1277;DHT22;631;51.024;13.826;2023-06-04T14:26:45;36.50;7.10
1277;DHT22;631;51.024;13.826;2023-06-04T14:29:11;36.70;6.20
1277;DHT22;631;51.024;13.826;2023-06-04T14:31:36;36.70;5.80
1277;DHT22;631;51.024;13.826;2023-06-04T14:34:03;36.50;5.60
1277;DHT22;631;51.024;13.826;2023-06-04T14:36:28;36.20;6.00
1277;DHT22;631;51.024;13.826;2023-06-04T14:38:54;36.20;5.90
1277;DHT22;631;51.024;13.826;2023-06-04T14:41:20;36.20;5.20
1277;DHT22;631;51.024;13.826;2023-06-04T14:43:45;36.10;5.60
1277;DHT22;631;51.024;13.826;2023-06-04T14:46:11;36.00;5.80
1277;DHT22;631;51.024;13.826;2023-06-04T14:48:36;35.90;6.50
1277;DHT22;631;51.024;13.826;2023-06-04T14:51:02;35.70;5.50
1277;DHT22;631;51.024;13.826;2023-06-04T14:53:28;35.60;6.00
1277;DHT22;631;51.024;13.826;2023-06-04T14:55:53;35.40;5.90
1277;DHT22;631;51.024;13.826;2023-06-04T14:58:19;35.50;6.40
1277;DHT22;631;51.024;13.826;2023-06-04T15:00:45;35.50;5.50
1277;DHT22;631;51.024;13.826;2023-06-04T15:03:11;35.40;6.10
1277;DHT22;631;51.024;13.826;2023-06-04T15:05:37;35.40;5.80
1277;DHT22;631;51.024;13.826;2023-06-04T15:08:03;35.50;5.20
1277;DHT22;631;51.024;13.826;2023-06-04T15:10:29;35.40;4.80
1277;DHT22;631;51.024;13.826;2023-06-04T15:12:55;35.30;5.10
1277;DHT22;631;51.024;13.826;2023-06-04T15:15:21;35.30;5.50
1277;DHT22;631;51.024;13.826;2023-06-04T15:17:48;35.20;4.70
1277;DHT22;631;51.024;13.826;2023-06-04T15:20:14;35.20;4.40
1277;DHT22;631;51.024;13.826;2023-06-04T15:22:39;35.20;4.60
1277;DHT22;631;51.024;13.826;2023-06-04T15:25:06;35.10;5.40
1277;DHT22;631;51.024;13.826;2023-06-04T15:27:31;35.00;5.20
1277;DHT22;631;51.024;13.826;2023-06-04T15:29:57;35.10;5.60
1277;DHT22;631;51.024;13.826;2023-06-04T15:32:23;34.90;5.00
1277;DHT22;631;51.024;13.826;2023-06-04T15:34:49;34.70;4.60
1277;DHT22;631;51.024;13.826;2023-06-04T15:37:14;35.00;5.60
1277;DHT22;631;51.024;13.826;2023-06-04T15:39:40;34.90;5.60
1277;DHT22;631;51.024;13.826;2023-06-04T15:42:06;34.60;5.70
1277;DHT22;631;51.024;13.826;2023-06-04T15:44:32;34.30;6.10
1277;DHT22;631;51.024;13.826;2023-06-04T15:46:58;34.10;6.30
1277;DHT22;631;51.024;13.826;2023-06-04T15:49:23;34.20;6.30
1277;DHT22;631;51.024;13.826;2023-06-04T15:51:49;34.00;6.80
1277;DHT22;631;51.024;13.826;2023-06-04T15:54:15;34.10;6.90
1277;DHT22;631;51.024;13.826;2023-06-04T15:56:41;34.00;6.60
1277;DHT22;631;51.024;13.826;2023-06-04T15:59:06;33.90;7.20
1277;DHT22;631;51.024;13.826;2023-06-04T16:01:32;33.70;7.20
1277;DHT22;631;51.024;13.826;2023-06-04T16:03:57;33.60;7.70
1277;DHT22;631;51.024;13.826;2023-06-04T16:06:23;33.50;7.60
1277;DHT22;631;51.024;13.826;2023-06-04T16:08:49;33.30;7.90
1277;DHT22;631;51.024;13.826;2023-06-04T16:11:15;33.10;8.10
1277;DHT22;631;51.024;13.826;2023-06-04T16:13:41;33.00;8.60
1277;DHT22;631;51.024;13.826;2023-06-04T16:16:07;32.90;8.60
1277;DHT22;631;51.024;13.826;2023-06-04T16:18:33;33.00;8.50